createdAt,value
2022-09-03T00:00:08.375Z,15.65
2022-09-03T00:03:00.757Z,15.62
2022-09-03T00:05:52.709Z,15.43
2022-09-03T00:08:47.028Z,15.49
2022-09-03T00:11:43.341Z,15.47
2022-09-03T00:14:34.640Z,15.43
2022-09-03T00:17:22.620Z,15.38
2022-09-03T00:20:12.669Z,15.44
2022-09-03T00:23:01.321Z,15.44
2022-09-03T00:25:54.100Z,15.51
2022-09-03T00:28:45.719Z,15.51
2022-09-03T00:31:30.967Z,15.49
2022-09-03T00:34:34.976Z,15.43
2022-09-03T00:37:20.430Z,15.33
2022-09-03T00:40:10.863Z,15.25
2022-09-03T00:43:01.995Z,15.27
2022-09-03T00:45:57.465Z,15.36
2022-09-03T00:48:55.197Z,15.32
2022-09-03T00:51:50.633Z,15.30
2022-09-03T00:54:54.527Z,15.32
2022-09-03T00:57:56.886Z,15.34
2022-09-03T01:00:43.735Z,15.27
2022-09-03T01:03:42.159Z,15.25
2022-09-03T01:06:50.100Z,15.22
2022-09-03T01:09:35.315Z,15.24
2022-09-03T01:12:26.563Z,15.16
2022-09-03T01:15:15.401Z,15.05
2022-09-03T01:18:05.567Z,14.99
2022-09-03T01:20:54.020Z,14.85
2022-09-03T01:23:54.690Z,14.82
2022-09-03T01:26:40.184Z,14.72
2022-09-03T01:29:35.493Z,14.64
2022-09-03T01:32:30.632Z,14.65
2022-09-03T01:35:24.245Z,14.54
2022-09-03T01:38:25.753Z,14.40
2022-09-03T01:41:44.402Z,14.43
2022-09-03T01:44:43.511Z,14.23
2022-09-03T01:47:50.060Z,14.24
2022-09-03T01:50:57.942Z,14.22
2022-09-03T01:54:03.359Z,14.10
2022-09-03T01:56:59.362Z,14.01
2022-09-03T02:00:00.076Z,13.98
2022-09-03T02:02:49.036Z,13.88
2022-09-03T02:05:35.688Z,13.90
2022-09-03T02:08:21.089Z,13.86
2022-09-03T02:11:08.762Z,13.89
2022-09-03T02:13:57.784Z,13.87
2022-09-03T02:16:44.825Z,13.90
2022-09-03T02:19:31.504Z,13.76
2022-09-03T02:22:17.212Z,13.75
2022-09-03T02:25:02.691Z,13.75
2022-09-03T02:27:49.274Z,13.74
2022-09-03T02:30:34.574Z,13.64
2022-09-03T02:33:20.237Z,13.63
2022-09-03T02:36:08.007Z,13.60
2022-09-03T02:38:53.222Z,13.58
2022-09-03T02:41:38.498Z,13.55
2022-09-03T02:44:31.722Z,13.45
2022-09-03T02:47:18.016Z,13.45
2022-09-03T02:50:03.610Z,13.42
2022-09-03T02:52:49.288Z,13.40
2022-09-03T02:55:35.006Z,13.41
2022-09-03T02:58:20.279Z,13.40
2022-09-03T03:01:06.135Z,13.36
2022-09-03T03:03:52.128Z,13.26
2022-09-03T03:06:37.420Z,13.19
2022-09-03T03:09:22.795Z,13.29
2022-09-03T03:12:10.218Z,13.15
2022-09-03T03:14:55.427Z,13.11
2022-09-03T03:17:40.650Z,13.17
2022-09-03T03:20:26.157Z,13.11
2022-09-03T03:23:11.954Z,13.15
2022-09-03T03:26:00.609Z,13.07
2022-09-03T03:28:49.494Z,13.01
2022-09-03T03:31:35.049Z,13.07
2022-09-03T03:34:20.421Z,13.03
2022-09-03T03:37:06.231Z,12.93
2022-09-03T03:39:51.432Z,12.85
2022-09-03T03:42:36.949Z,12.87
2022-09-03T03:45:22.362Z,12.84
2022-09-03T03:48:08.005Z,12.84
2022-09-03T03:50:53.809Z,12.79
2022-09-03T03:53:39.268Z,12.79
2022-09-03T03:56:26.132Z,12.79
2022-09-03T03:59:11.656Z,12.76
2022-09-03T04:01:57.098Z,12.79
2022-09-03T04:04:42.566Z,12.80
2022-09-03T04:07:27.766Z,12.69
2022-09-03T04:10:13.431Z,12.75
2022-09-03T04:12:58.589Z,12.77
2022-09-03T04:15:44.284Z,12.73
2022-09-03T04:18:30.453Z,12.72
2022-09-03T04:21:19.565Z,12.67
2022-09-03T04:24:05.460Z,12.69
2022-09-03T04:26:50.990Z,12.75
2022-09-03T04:29:36.815Z,12.72
2022-09-03T04:32:41.388Z,12.66
2022-09-03T04:35:31.706Z,12.64
2022-09-03T04:38:17.321Z,12.62
2022-09-03T04:41:02.987Z,12.65
2022-09-03T04:43:51.582Z,12.57
2022-09-03T04:46:37.143Z,12.60
2022-09-03T04:49:22.568Z,12.62
2022-09-03T04:52:08.090Z,12.61
2022-09-03T04:54:53.568Z,12.65
2022-09-03T04:57:38.749Z,12.77
2022-09-03T05:00:24.409Z,12.75
2022-09-03T05:03:09.862Z,12.82
2022-09-03T05:05:56.085Z,12.79
2022-09-03T05:08:41.456Z,12.86
2022-09-03T05:11:27.608Z,12.84
2022-09-03T05:14:13.040Z,12.95
2022-09-03T05:16:58.415Z,13.03
2022-09-03T05:19:43.810Z,13.09
2022-09-03T05:22:29.017Z,13.17
2022-09-03T05:25:14.608Z,13.12
2022-09-03T05:28:00.414Z,13.25
2022-09-03T05:30:45.831Z,13.27
2022-09-03T05:33:35.648Z,13.40
2022-09-03T05:36:23.048Z,13.46
2022-09-03T05:39:08.534Z,13.59
2022-09-03T05:41:53.998Z,13.68
2022-09-03T05:44:39.434Z,13.74
2022-09-03T05:47:24.621Z,13.86
2022-09-03T05:50:10.825Z,13.88
2022-09-03T05:52:55.983Z,13.97
2022-09-03T05:55:41.510Z,14.13
2022-09-03T05:58:36.405Z,14.32
2022-09-03T06:01:22.859Z,14.49
2022-09-03T06:04:09.565Z,14.60
2022-09-03T06:06:56.192Z,14.77
2022-09-03T06:09:41.957Z,14.92
2022-09-03T06:12:27.586Z,15.01
2022-09-03T06:15:12.732Z,15.11
2022-09-03T06:17:58.239Z,15.31
2022-09-03T06:20:43.347Z,15.57
2022-09-03T06:23:29.884Z,15.52
2022-09-03T06:26:15.276Z,15.79
2022-09-03T06:29:00.926Z,15.89
2022-09-03T06:31:48.466Z,15.82
2022-09-03T06:34:33.875Z,16.20
2022-09-03T06:37:19.579Z,16.37
2022-09-03T06:40:04.955Z,16.53
2022-09-03T06:43:02.502Z,16.75
2022-09-03T06:45:57.895Z,17.03
2022-09-03T06:48:45.654Z,17.04
2022-09-03T06:51:32.927Z,17.15
2022-09-03T06:54:18.600Z,17.57
2022-09-03T06:57:04.408Z,17.74
2022-09-03T06:59:49.909Z,17.90
2022-09-03T07:02:35.236Z,18.02
2022-09-03T07:05:20.897Z,17.85
2022-09-03T07:08:06.140Z,18.14
2022-09-03T07:10:51.633Z,18.34
2022-09-03T07:13:37.713Z,18.68
2022-09-03T07:16:24.202Z,18.99
2022-09-03T07:19:09.912Z,19.11
2022-09-03T07:21:55.023Z,19.07
2022-09-03T07:24:40.472Z,19.67
2022-09-03T07:27:26.441Z,20.08
2022-09-03T07:30:12.054Z,20.47
2022-09-03T07:33:01.746Z,20.85
2022-09-03T07:35:47.626Z,21.31
2022-09-03T07:38:33.731Z,20.93
2022-09-03T07:41:28.522Z,21.63
2022-09-03T07:44:16.319Z,21.55
2022-09-03T07:47:02.925Z,22.40
2022-09-03T07:49:48.761Z,22.90
2022-09-03T07:52:34.035Z,22.73
2022-09-03T07:55:20.070Z,23.41
2022-09-03T07:58:05.975Z,23.79
2022-09-03T08:00:54.043Z,23.98
2022-09-03T08:03:43.013Z,24.41
2022-09-03T08:06:29.460Z,24.29
2022-09-03T08:09:14.742Z,24.26
2022-09-03T08:12:00.260Z,25.00
2022-09-03T08:14:45.639Z,24.96
2022-09-03T08:17:31.156Z,24.62
2022-09-03T08:20:16.644Z,25.30
2022-09-03T08:23:02.932Z,25.90
2022-09-03T08:25:48.437Z,26.11
2022-09-03T08:28:35.084Z,26.35
2022-09-03T08:31:21.778Z,26.92
2022-09-03T08:34:07.458Z,26.76
2022-09-03T08:36:54.360Z,27.24
2022-09-03T08:39:39.850Z,27.98
2022-09-03T08:42:28.821Z,28.95
2022-09-03T08:45:17.724Z,28.62
2022-09-03T08:48:10.217Z,28.54
2022-09-03T08:50:59.924Z,28.22
2022-09-03T08:53:50.835Z,27.57
2022-09-03T08:56:38.693Z,29.34
2022-09-03T08:59:30.077Z,29.20
2022-09-03T09:02:39.354Z,29.51
2022-09-03T09:05:38.974Z,29.81
2022-09-03T09:08:32.951Z,30.04
2022-09-03T09:11:29.585Z,31.49
2022-09-03T09:14:36.902Z,31.97
2022-09-03T09:17:31.614Z,31.32
2022-09-03T09:20:35.495Z,31.36
2022-09-03T09:23:29.493Z,30.78
2022-09-03T09:26:19.074Z,31.84
2022-09-03T09:29:09.528Z,31.75
2022-09-03T09:31:55.967Z,32.74
2022-09-03T09:34:41.967Z,31.22
2022-09-03T09:37:27.602Z,31.02
2022-09-03T09:40:23.037Z,29.99
2022-09-03T09:43:16.129Z,30.69
2022-09-03T09:46:09.958Z,32.72
2022-09-03T09:48:57.189Z,32.58
2022-09-03T09:51:43.056Z,32.67
2022-09-03T09:54:28.432Z,31.79
2022-09-03T09:57:17.805Z,33.55
2022-09-03T10:00:13.375Z,34.07
2022-09-03T10:02:58.965Z,35.69
2022-09-03T10:05:56.004Z,33.70
2022-09-03T10:08:42.899Z,32.32
2022-09-03T10:11:28.247Z,34.36
2022-09-03T10:14:19.001Z,32.69
2022-09-03T10:17:10.648Z,33.24
2022-09-03T10:20:23.056Z,33.49
2022-09-03T10:23:15.741Z,33.64
2022-09-03T10:26:10.090Z,35.07
2022-09-03T10:28:58.189Z,33.87
2022-09-03T10:31:48.550Z,33.66
2022-09-03T10:34:49.170Z,34.34
2022-09-03T10:37:52.908Z,35.83
2022-09-03T10:40:42.637Z,34.15
2022-09-03T10:43:38.884Z,34.40
2022-09-03T10:46:27.600Z,35.28
2022-09-03T10:49:20.681Z,35.24
2022-09-03T10:52:35.184Z,36.64
2022-09-03T10:55:29.165Z,35.25
2022-09-03T10:58:33.241Z,35.10
2022-09-03T11:01:38.748Z,33.76
2022-09-03T11:04:27.175Z,35.98
2022-09-03T11:07:13.841Z,38.18
2022-09-03T11:10:17.946Z,37.54
2022-09-03T11:13:06.491Z,36.71
2022-09-03T11:15:54.128Z,38.06
2022-09-03T11:18:50.308Z,35.88
2022-09-03T11:21:36.614Z,35.84
2022-09-03T11:24:26.980Z,37.05
2022-09-03T11:27:20.076Z,37.71
2022-09-03T11:30:10.280Z,37.94
2022-09-03T11:32:59.683Z,35.61
2022-09-03T11:35:45.727Z,37.01
2022-09-03T11:38:32.069Z,37.04
2022-09-03T11:41:26.176Z,34.79
2022-09-03T11:44:17.145Z,34.33
2022-09-03T11:47:13.721Z,34.98
2022-09-03T11:50:06.674Z,35.28
2022-09-03T11:53:08.894Z,35.28
2022-09-03T11:55:55.701Z,34.82
2022-09-03T11:58:43.478Z,36.12
2022-09-03T12:01:29.518Z,34.80
2022-09-03T12:04:18.134Z,36.38
2022-09-03T12:07:14.610Z,33.89
2022-09-03T12:10:24.849Z,34.34
2022-09-03T12:13:16.051Z,36.59
2022-09-03T12:16:20.079Z,37.89
2022-09-03T12:19:12.589Z,39.75
2022-09-03T12:21:58.059Z,38.26
2022-09-03T12:24:44.451Z,35.86
2022-09-03T12:27:33.255Z,32.27
2022-09-03T12:30:21.440Z,33.18
2022-09-03T12:33:07.642Z,30.49
2022-09-03T12:36:00.705Z,33.57
2022-09-03T12:39:10.552Z,35.10
2022-09-03T12:42:04.022Z,35.62
2022-09-03T12:44:49.698Z,36.63
2022-09-03T12:47:39.178Z,36.12
2022-09-03T12:50:25.112Z,33.95
2022-09-03T12:53:16.669Z,35.95
2022-09-03T12:56:02.760Z,38.15
2022-09-03T12:58:56.697Z,36.74
2022-09-03T13:01:49.443Z,36.29
2022-09-03T13:04:36.715Z,37.70
2022-09-03T13:07:29.875Z,38.10
2022-09-03T13:10:42.189Z,36.12
2022-09-03T13:13:32.105Z,36.55
2022-09-03T13:16:41.472Z,37.44
2022-09-03T13:19:45.573Z,37.37
2022-09-03T13:22:49.218Z,36.06
2022-09-03T13:25:41.350Z,37.15
2022-09-03T13:28:27.669Z,35.09
2022-09-03T13:31:25.800Z,35.40
2022-09-03T13:34:16.819Z,35.72
2022-09-03T13:37:08.434Z,36.76
2022-09-03T13:39:55.637Z,36.52
2022-09-03T13:42:42.127Z,36.92
2022-09-03T13:45:44.230Z,35.78
2022-09-03T13:48:54.953Z,35.01
2022-09-03T13:51:49.774Z,36.14
2022-09-03T13:54:48.982Z,36.23
2022-09-03T13:57:40.077Z,36.20
2022-09-03T14:00:43.037Z,35.29
2022-09-03T14:03:49.280Z,34.62
2022-09-03T14:06:38.137Z,35.38
2022-09-03T14:09:31.121Z,35.06
2022-09-03T14:12:23.924Z,33.41
2022-09-03T14:15:29.673Z,35.86
2022-09-03T14:18:33.902Z,35.18
2022-09-03T14:21:22.762Z,35.67
2022-09-03T14:24:29.429Z,36.80
2022-09-03T14:27:22.577Z,36.80
2022-09-03T14:30:17.914Z,36.67
2022-09-03T14:33:03.366Z,36.52
2022-09-03T14:35:58.733Z,35.13
2022-09-03T14:38:56.242Z,34.94
2022-09-03T14:42:10.293Z,32.29
2022-09-03T14:44:58.313Z,33.92
2022-09-03T14:47:50.833Z,33.65
2022-09-03T14:50:45.416Z,34.93
2022-09-03T14:53:49.559Z,33.10
2022-09-03T14:56:42.880Z,29.69
2022-09-03T14:59:31.438Z,28.23
2022-09-03T15:02:19.483Z,29.52
2022-09-03T15:05:23.821Z,31.09
2022-09-03T15:08:27.699Z,30.75
2022-09-03T15:11:18.163Z,31.78
2022-09-03T15:14:03.353Z,30.12
2022-09-03T15:17:08.904Z,32.07
2022-09-03T15:20:14.260Z,32.37
2022-09-03T15:23:02.524Z,29.17
2022-09-03T15:26:06.442Z,30.92
2022-09-03T15:28:59.304Z,31.73
2022-09-03T15:31:52.673Z,30.98
2022-09-03T15:34:58.980Z,31.09
2022-09-03T15:37:48.991Z,32.89
2022-09-03T15:40:34.186Z,31.74
2022-09-03T15:43:27.420Z,31.37
2022-09-03T15:46:28.994Z,31.78
2022-09-03T15:49:21.658Z,31.41
2022-09-03T15:52:27.499Z,30.28
2022-09-03T15:55:15.181Z,28.77
2022-09-03T15:58:11.094Z,27.70
2022-09-03T16:01:00.280Z,28.06
2022-09-03T16:03:56.118Z,28.08
2022-09-03T16:06:44.683Z,26.59
2022-09-03T16:09:37.757Z,25.86
2022-09-03T16:12:44.157Z,25.12
2022-09-03T16:15:34.478Z,24.57
2022-09-03T16:18:20.023Z,24.69
2022-09-03T16:21:12.292Z,24.40
2022-09-03T16:24:05.230Z,24.17
2022-09-03T16:27:00.204Z,23.62
2022-09-03T16:29:54.628Z,23.44
2022-09-03T16:32:42.900Z,23.51
2022-09-03T16:35:42.486Z,23.54
2022-09-03T16:38:32.709Z,23.50
2022-09-03T16:41:18.609Z,23.29
2022-09-03T16:44:10.336Z,23.22
2022-09-03T16:47:04.133Z,23.23
2022-09-03T16:50:09.062Z,22.87
2022-09-03T16:55:53.666Z,22.67
2022-09-03T16:58:51.150Z,22.41
2022-09-03T17:01:36.572Z,22.51
2022-09-03T17:04:39.556Z,22.33
2022-09-03T17:07:25.028Z,22.47
2022-09-03T17:10:23.307Z,22.20
2022-09-03T17:13:17.138Z,22.18
2022-09-03T17:16:20.320Z,21.96
2022-09-03T17:19:23.229Z,21.97
2022-09-03T17:22:10.269Z,21.86
2022-09-03T17:25:05.176Z,21.74
2022-09-03T17:28:00.532Z,21.64
2022-09-03T17:30:57.039Z,21.67
2022-09-03T17:33:56.553Z,21.57
2022-09-03T17:36:51.034Z,21.39
2022-09-03T17:39:48.753Z,21.16
2022-09-03T17:42:38.453Z,21.17
2022-09-03T17:45:36.990Z,21.13
2022-09-03T17:48:43.751Z,21.01
2022-09-03T17:51:48.655Z,20.76
2022-09-03T17:54:44.493Z,20.83
2022-09-03T17:57:32.636Z,20.58
2022-09-03T18:00:37.893Z,20.50
2022-09-03T18:03:26.121Z,20.30
2022-09-03T18:06:27.248Z,20.29
2022-09-03T18:09:22.238Z,20.14
2022-09-03T18:12:11.684Z,20.08
2022-09-03T18:15:07.583Z,19.91
2022-09-03T18:18:02.988Z,19.80
2022-09-03T18:21:30.884Z,19.77
2022-09-03T18:25:00.151Z,19.76
2022-09-03T18:28:09.905Z,19.61
2022-09-03T18:31:13.832Z,19.52
2022-09-03T18:34:17.677Z,19.33
2022-09-03T18:37:22.100Z,19.18
2022-09-03T18:40:27.719Z,19.29
2022-09-03T18:43:44.009Z,19.17
2022-09-03T18:50:53.620Z,19.00
2022-09-03T18:54:08.149Z,18.90
2022-09-03T18:57:12.343Z,18.68
2022-09-03T19:00:29.020Z,18.67
2022-09-03T19:04:04.018Z,18.55
2022-09-03T19:07:18.018Z,18.61
2022-09-03T19:10:26.735Z,18.42
2022-09-03T19:13:37.248Z,18.41
2022-09-03T19:16:44.103Z,18.28
2022-09-03T19:20:02.918Z,18.18
2022-09-03T19:23:06.861Z,18.17
2022-09-03T19:26:15.255Z,18.07
2022-09-03T19:29:22.271Z,17.95
2022-09-03T19:32:36.397Z,18.01
2022-09-03T19:35:45.764Z,17.91
2022-09-03T19:38:59.290Z,17.89
2022-09-03T19:42:14.940Z,17.85
2022-09-03T19:45:21.737Z,17.81
2022-09-03T19:48:32.070Z,17.84
2022-09-03T19:51:50.881Z,17.76
2022-09-03T19:54:55.833Z,17.64
2022-09-03T19:58:02.322Z,17.73
2022-09-03T20:01:06.965Z,17.61
2022-09-03T20:04:11.726Z,17.55
2022-09-03T20:07:17.014Z,17.44
2022-09-03T20:10:22.236Z,17.44
2022-09-03T20:13:15.095Z,17.41
2022-09-03T20:16:22.034Z,17.42
2022-09-03T20:19:26.298Z,17.31
2022-09-03T20:22:11.519Z,17.15
2022-09-03T20:25:16.019Z,17.26
2022-09-03T20:28:01.296Z,17.20
2022-09-03T20:30:51.105Z,17.12
2022-09-03T20:33:55.416Z,17.05
2022-09-03T20:36:54.346Z,17.10
2022-09-03T20:39:58.790Z,16.92
2022-09-03T20:43:03.331Z,16.99
2022-09-03T20:45:48.637Z,16.92
2022-09-03T20:48:52.651Z,16.88
2022-09-03T20:51:53.266Z,16.92
2022-09-03T20:54:47.397Z,16.89
2022-09-03T20:57:51.659Z,16.82
2022-09-03T21:00:58.026Z,16.89
2022-09-03T21:03:54.142Z,16.88
2022-09-03T21:06:46.310Z,16.73
2022-09-03T21:09:43.606Z,16.78
2022-09-03T21:12:35.779Z,16.82
2022-09-03T21:15:33.073Z,16.83
2022-09-03T21:18:41.519Z,16.77
2022-09-03T21:21:38.405Z,16.80
2022-09-03T21:24:23.588Z,16.74
2022-09-03T21:27:20.870Z,16.64
2022-09-03T21:30:08.382Z,16.64
2022-09-03T21:33:02.659Z,16.63
2022-09-03T21:35:58.402Z,16.60
2022-09-03T21:38:49.154Z,16.54
2022-09-03T21:41:38.039Z,16.44
2022-09-03T21:44:43.994Z,16.47
2022-09-03T21:47:30.761Z,16.45
2022-09-03T21:50:16.792Z,16.31
2022-09-03T21:53:15.835Z,16.29
2022-09-03T21:56:21.687Z,16.31
2022-09-03T21:59:30.925Z,16.21
2022-09-03T22:02:30.088Z,16.18
2022-09-03T22:05:16.321Z,16.09
2022-09-03T22:08:12.150Z,16.08
2022-09-03T22:11:10.859Z,16.00
2022-09-03T22:14:15.917Z,16.06
2022-09-03T22:17:10.051Z,15.96
2022-09-03T22:19:55.558Z,15.98
2022-09-03T22:22:40.779Z,15.80
2022-09-03T22:25:32.250Z,15.82
2022-09-03T22:28:23.124Z,15.70
2022-09-03T22:31:35.433Z,15.78
2022-09-03T22:34:33.347Z,15.75
2022-09-03T22:37:39.173Z,15.73
2022-09-03T22:40:44.994Z,15.66
2022-09-03T22:43:37.780Z,15.63
2022-09-03T22:46:27.501Z,15.57
2022-09-03T22:49:13.006Z,15.64
2022-09-03T22:52:14.907Z,15.52
2022-09-03T22:55:17.591Z,15.42
2022-09-03T22:58:08.918Z,15.44
2022-09-03T23:00:59.019Z,15.39
2022-09-03T23:03:44.636Z,15.35
2022-09-03T23:06:36.218Z,15.26
2022-09-03T23:09:22.463Z,15.24
2022-09-03T23:12:14.834Z,15.26
2022-09-03T23:15:02.989Z,15.25
2022-09-03T23:17:53.280Z,15.23
2022-09-03T23:20:40.881Z,15.25
2022-09-03T23:23:29.642Z,15.20
2022-09-03T23:26:23.454Z,15.24
2022-09-03T23:29:12.140Z,15.13
2022-09-03T23:31:58.665Z,15.13
2022-09-03T23:34:44.248Z,15.13
2022-09-03T23:37:33.846Z,15.16
2022-09-03T23:40:28.372Z,15.07
2022-09-03T23:43:37.398Z,14.97
2022-09-03T23:46:31.615Z,15.05
2022-09-03T23:49:28.824Z,14.99
2022-09-03T23:52:20.885Z,14.88
2022-09-03T23:55:21.462Z,14.86
2022-09-03T23:58:09.561Z,14.82
